Weather History for Wahpeton, ND

Change the Weather History Date:

Saturday, March 22, 2014

  Actual Average (KFFM) Record (KFFM)
Temperature  
Mean Temperature 16 °F -  
Max Temperature 21 °F 39 °F 64 °F (2012)
Min Temperature 10 °F 20 °F -2 °F (1989)
Degree Days  
Heating Degree Days 50    
Moisture  
Dew Point 5 °F    
Average Humidity 66    
Maximum Humidity 85    
Minimum Humidity 54    
Precipitation  
Precipitation 0.00 in - - ()
Sea Level Pressure  
Sea Level Pressure 30.48 in    
Wind  
Wind Speed 14 mph (NNW)    
Max Wind Speed 21 mph    
Max Gust Speed 26 mph    
Visibility 10 miles    
Events      
Averages and records for this station are not official NWS values.
T = Trace of Precipitation, MM = Missing Value Source: NWS Daily Summary

Daily Weather History Graph

Daily Weather History Graph

Search for Another Location

Airport:

Trip Planner

Search our weather history database for the weather conditions in past years. The results will help you decide how hot, cold, wet, or windy it might be!

Date:

Astronomy

Mar. 22, 2014 Rise Set
Actual Time 7:25 AM CDT 7:41 PM CDT
Civil Twilight 6:55 AM CDT 8:11 PM CDT
Nautical Twilight 6:20 AM CDT 8:47 PM CDT
Astronomical Twilight 5:43 AM CDT 9:23 PM CDT
Moon 1:18 AM CDT (3/22) 10:53 AM CDT (3/22)
Length of Visible Light 13h 16m
Length of Day
12h 16m
Waning Gibbous, 65% of the Moon is Illuminated
Mar 22
Waning Gibbous
Mar 23
Last Quarter
Mar 30
New
Apr 7
First Quarter
Apr 15
Full

Hourly Weather History & Observations

Time (CDT) Temp. Windchill Dew Point Humidity Pressure Visibility Wind Dir Wind Speed Gust Speed Precip Events Conditions
12:15 AM 14.0 °F -2.0 °F 6.8 °F 73% 30.38 in 10.0 mi North 16.1 mph 20.7 mph N/A   Mostly Cloudy
12:35 AM 12.2 °F -2.5 °F 6.8 °F 79% 30.39 in 10.0 mi North 12.7 mph 20.7 mph N/A   Mostly Cloudy
12:55 AM 12.2 °F -4.8 °F 5.0 °F 73% 30.40 in 10.0 mi North 17.3 mph 21.9 mph N/A   Mostly Cloudy
1:15 AM 12.2 °F -5.8 °F 3.2 °F 67% 30.40 in 10.0 mi North 19.6 mph 23.0 mph N/A   Overcast
1:35 AM 12.2 °F -6.3 °F 3.2 °F 67% 30.40 in 10.0 mi North 20.7 mph 26.5 mph N/A   Mostly Cloudy
1:55 AM 12.2 °F -5.8 °F 1.4 °F 62% 30.41 in 10.0 mi North 19.6 mph 26.5 mph N/A   Scattered Clouds
2:15 AM 10.4 °F -7.7 °F 1.4 °F 67% 30.42 in 10.0 mi North 18.4 mph 24.2 mph N/A   Clear
2:35 AM 12.2 °F -5.8 °F 1.4 °F 62% 30.42 in 10.0 mi North 19.6 mph 26.5 mph N/A   Clear
2:55 AM 10.4 °F -8.2 °F 1.4 °F 67% 30.42 in 10.0 mi North 19.6 mph 25.3 mph N/A   Clear
3:15 AM 10.4 °F -8.6 °F 1.4 °F 67% 30.42 in 10.0 mi North 20.7 mph 25.3 mph N/A   Clear
3:35 AM 10.4 °F -8.2 °F 1.4 °F 67% 30.42 in 10.0 mi NNW 19.6 mph 25.3 mph N/A   Clear
3:55 AM 10.4 °F -6.6 °F -0.4 °F 62% 30.43 in 10.0 mi North 16.1 mph 19.6 mph N/A   Clear
4:15 AM 10.4 °F -7.7 °F -0.4 °F 62% 30.43 in 10.0 mi North 18.4 mph 25.3 mph N/A   Clear
4:35 AM 10.4 °F -7.2 °F -0.4 °F 62% 30.43 in 10.0 mi North 17.3 mph 21.9 mph N/A   Clear
4:55 AM 10.4 °F -7.7 °F -0.4 °F 62% 30.43 in 10.0 mi North 18.4 mph 24.2 mph N/A   Clear
5:15 AM 10.4 °F -5.4 °F 1.4 °F 67% 30.44 in 10.0 mi North 13.8 mph 19.6 mph N/A   Clear
5:35 AM 10.4 °F -4.1 °F 1.4 °F 67% 30.45 in 10.0 mi NNW 11.5 mph 17.3 mph N/A   Clear
5:55 AM 10.4 °F -4.8 °F 1.4 °F 67% 30.45 in 10.0 mi NNW 12.7 mph 18.4 mph N/A   Clear
6:15 AM 10.4 °F -7.2 °F -0.4 °F 62% 30.45 in 10.0 mi North 17.3 mph - N/A   Clear
6:35 AM 10.4 °F -5.4 °F -0.4 °F 62% 30.46 in 10.0 mi North 13.8 mph 18.4 mph N/A   Clear
6:55 AM 10.4 °F -4.1 °F 1.4 °F 67% 30.46 in 10.0 mi NNW 11.5 mph - N/A   Clear
7:15 AM 10.4 °F -6.0 °F 1.4 °F 67% 30.47 in 10.0 mi NNW 15.0 mph - N/A   Clear
7:35 AM 10.4 °F -3.3 °F 1.4 °F 67% 30.47 in 10.0 mi North 10.4 mph - N/A   Clear
7:55 AM 10.4 °F -4.8 °F 1.4 °F 67% 30.48 in 10.0 mi NNW 12.7 mph - N/A   Clear
8:15 AM 10.4 °F -6.6 °F 1.4 °F 67% 30.48 in 10.0 mi NNW 16.1 mph - N/A   Clear
8:35 AM 12.2 °F -4.8 °F 1.4 °F 62% 30.48 in 10.0 mi North 17.3 mph 23.0 mph N/A   Clear
8:55 AM 12.2 °F -3.7 °F 1.4 °F 62% 30.49 in 10.0 mi NNW 15.0 mph 19.6 mph N/A   Clear
9:15 AM 12.2 °F -3.7 °F 3.2 °F 67% 30.50 in 10.0 mi North 15.0 mph 18.4 mph N/A   Scattered Clouds
9:35 AM 12.2 °F -3.1 °F 3.2 °F 67% 30.51 in 10.0 mi NNW 13.8 mph 18.4 mph N/A   Mostly Cloudy
9:55 AM 12.2 °F -4.3 °F 3.2 °F 67% 30.51 in 10.0 mi North 16.1 mph - N/A   Scattered Clouds
10:15 AM 14.0 °F -0.8 °F 3.2 °F 62% 30.51 in 10.0 mi North 13.8 mph - N/A   Scattered Clouds
10:35 AM 14.0 °F -0.8 °F 5.0 °F 67% 30.51 in 10.0 mi North 13.8 mph - N/A   Scattered Clouds
10:55 AM 14.0 °F -0.2 °F 5.0 °F 67% 30.52 in 10.0 mi NNW 12.7 mph 18.4 mph N/A   Scattered Clouds
11:15 AM 14.0 °F 0.5 °F 5.0 °F 67% 30.52 in 10.0 mi North 11.5 mph 20.7 mph N/A   Mostly Cloudy
11:35 AM 15.8 °F 2.7 °F 5.0 °F 62% 30.52 in 10.0 mi NNW 11.5 mph - N/A   Mostly Cloudy
11:55 AM 15.8 °F 1.4 °F 5.0 °F 62% 30.52 in 10.0 mi NNW 13.8 mph 20.7 mph N/A   Mostly Cloudy
12:15 PM 17.6 °F 2.2 °F 5.0 °F 58% 30.52 in 10.0 mi NW 17.3 mph 20.7 mph N/A   Mostly Cloudy
12:35 PM 17.6 °F 4.3 °F 5.0 °F 58% 30.53 in 10.0 mi NW 12.7 mph 23.0 mph N/A   Mostly Cloudy
12:55 PM 17.6 °F 2.2 °F 6.8 °F 63% 30.53 in 10.0 mi NW 17.3 mph 23.0 mph N/A   Overcast
1:15 PM 17.6 °F 3.2 °F 5.0 °F 58% 30.53 in 10.0 mi NNW 15.0 mph 20.7 mph N/A   Overcast
1:35 PM 17.6 °F 2.7 °F 6.8 °F 63% 30.52 in 10.0 mi NNW 16.1 mph 21.9 mph N/A   Overcast
1:55 PM 17.6 °F 2.7 °F 6.8 °F 63% 30.52 in 10.0 mi NNW 16.1 mph 20.7 mph N/A   Overcast
2:15 PM 17.6 °F 4.3 °F 6.8 °F 63% 30.51 in 10.0 mi NNW 12.7 mph 21.9 mph N/A   Overcast
2:35 PM 19.4 °F 4.5 °F 6.8 °F 58% 30.51 in 10.0 mi NNW 17.3 mph 21.9 mph N/A   Overcast
2:55 PM 17.6 °F 2.2 °F 6.8 °F 63% 30.51 in 10.0 mi NNW 17.3 mph 20.7 mph N/A   Overcast
3:15 PM 19.4 °F 7.2 °F 6.8 °F 58% 30.51 in 10.0 mi North 11.5 mph 20.7 mph N/A   Overcast
3:35 PM 19.4 °F 6.0 °F 6.8 °F 58% 30.50 in 10.0 mi NNW 13.8 mph 19.6 mph N/A   Overcast
3:55 PM 17.6 °F 3.7 °F 5.0 °F 58% 30.50 in 10.0 mi NNW 13.8 mph 20.7 mph N/A   Overcast
4:15 PM 19.4 °F 6.6 °F 6.8 °F 58% 30.50 in 10.0 mi NNW 12.7 mph - N/A   Overcast
4:35 PM 19.4 °F 7.2 °F 6.8 °F 58% 30.50 in 10.0 mi North 11.5 mph 21.9 mph N/A   Overcast
4:55 PM 21.2 °F 7.8 °F 6.8 °F 54% 30.49 in 10.0 mi North 15.0 mph 18.4 mph N/A   Mostly Cloudy
5:15 PM 19.4 °F 8.6 °F 5.0 °F 54% 30.50 in 10.0 mi NNW 9.2 mph - N/A   Mostly Cloudy
5:35 PM 19.4 °F 8.6 °F 8.6 °F 63% 30.50 in 10.0 mi North 9.2 mph - N/A   Mostly Cloudy
5:55 PM 19.4 °F 5.5 °F 8.6 °F 63% 30.50 in 10.0 mi North 15.0 mph - N/A   Mostly Cloudy
6:15 PM 19.4 °F 6.6 °F 6.8 °F 58% 30.50 in 10.0 mi NNW 12.7 mph - N/A   Mostly Cloudy
6:35 PM 19.4 °F 7.9 °F 8.6 °F 63% 30.50 in 10.0 mi North 10.4 mph - N/A   Overcast
6:55 PM 19.4 °F 6.6 °F 6.8 °F 58% 30.50 in 10.0 mi North 12.7 mph 16.1 mph N/A   Overcast
7:15 PM 17.6 °F 6.4 °F 8.6 °F 68% 30.50 in 10.0 mi North 9.2 mph - N/A   Scattered Clouds
7:35 PM 17.6 °F 7.3 °F 6.8 °F 63% 30.50 in 10.0 mi North 8.1 mph - N/A   Clear
7:55 PM 17.6 °F 7.3 °F 6.8 °F 63% 30.51 in 10.0 mi NNW 8.1 mph - N/A   Clear
8:15 PM 17.6 °F 8.2 °F 6.8 °F 63% 30.51 in 10.0 mi North 6.9 mph - N/A   Scattered Clouds
8:35 PM 17.6 °F 8.2 °F 8.6 °F 68% 30.51 in 10.0 mi North 6.9 mph - N/A   Scattered Clouds
8:55 PM 17.6 °F 6.4 °F 6.8 °F 63% 30.51 in 10.0 mi North 9.2 mph - N/A   Mostly Cloudy
9:15 PM 15.8 °F 10.2 °F 6.8 °F 68% 30.52 in 10.0 mi North 3.5 mph - N/A   Mostly Cloudy
9:35 PM 15.8 °F 8.6 °F 8.6 °F 73% 30.52 in 10.0 mi North 4.6 mph - N/A   Mostly Cloudy
9:55 PM 14.0 °F - 8.6 °F 79% 30.52 in 10.0 mi Calm Calm - N/A   Scattered Clouds
10:15 PM 14.0 °F - 8.6 °F 79% 30.52 in 10.0 mi Calm Calm - N/A   Clear
10:35 PM 14.0 °F - 8.6 °F 79% 30.53 in 10.0 mi Calm Calm - N/A   Clear
10:55 PM 14.0 °F 8.2 °F 8.6 °F 79% 30.53 in 10.0 mi NW 3.5 mph - N/A   Clear
11:15 PM 12.2 °F - 8.6 °F 85% 30.53 in 10.0 mi Calm Calm - N/A   Clear
11:35 PM 12.2 °F 6.1 °F 8.6 °F 85% 30.53 in 10.0 mi West 3.5 mph - N/A   Clear
11:55 PM 12.2 °F 4.3 °F 8.6 °F 85% 30.53 in 10.0 mi West 4.6 mph - N/A   Clear